createdAt,value
2022-09-21T00:01:20.991Z,93.36
2022-09-21T00:03:53.242Z,93.27
2022-09-21T00:06:23.296Z,93.14
2022-09-21T00:08:51.999Z,93.05
2022-09-21T00:11:24.457Z,93.12
2022-09-21T00:13:54.743Z,93.53
2022-09-21T00:16:23.253Z,93.23
2022-09-21T00:18:51.817Z,93.12
2022-09-21T00:21:21.175Z,93.30
2022-09-21T00:23:49.759Z,92.84
2022-09-21T00:26:19.716Z,92.80
2022-09-21T00:28:53.929Z,93.54
2022-09-21T00:31:22.937Z,93.88
2022-09-21T00:33:51.425Z,94.19
2022-09-21T00:36:21.751Z,94.22
2022-09-21T00:38:53.954Z,93.78
2022-09-21T00:41:22.808Z,93.90
2022-09-21T00:44:20.472Z,93.72
2022-09-21T00:46:50.593Z,93.60
2022-09-21T00:49:19.340Z,94.38
2022-09-21T00:51:48.131Z,94.41
2022-09-21T00:54:23.469Z,94.55
2022-09-21T00:56:56.168Z,94.36
2022-09-21T00:59:29.417Z,94.45
2022-09-21T01:01:59.361Z,94.42
2022-09-21T01:04:28.498Z,94.40
2022-09-21T01:06:57.380Z,94.48
2022-09-21T01:09:26.474Z,94.36
2022-09-21T01:12:05.151Z,94.16
2022-09-21T01:14:48.589Z,94.25
2022-09-21T01:17:21.302Z,94.02
2022-09-21T01:20:13.200Z,94.35
2022-09-21T01:22:54.379Z,94.24
2022-09-21T01:25:33.438Z,94.68
2022-09-21T01:28:21.713Z,94.34
2022-09-21T01:30:53.039Z,94.28
2022-09-21T01:33:25.657Z,94.10
2022-09-21T01:35:59.967Z,94.29
2022-09-21T01:38:32.288Z,94.11
2022-09-21T01:41:03.596Z,94.72
2022-09-21T01:43:37.453Z,94.09
2022-09-21T01:46:10.198Z,93.94
2022-09-21T01:48:41.881Z,94.00
2022-09-21T01:51:13.700Z,93.91
2022-09-21T01:53:44.788Z,94.06
2022-09-21T01:56:16.340Z,94.03
2022-09-21T01:58:47.421Z,93.67
2022-09-21T02:01:18.464Z,93.92
2022-09-21T02:03:50.301Z,94.02
2022-09-21T02:06:19.013Z,93.94
2022-09-21T02:08:48.045Z,94.19
2022-09-21T02:11:16.383Z,94.13
2022-09-21T02:13:46.722Z,94.52
2022-09-21T02:16:30.277Z,94.43
2022-09-21T02:19:10.451Z,94.98
2022-09-21T02:21:52.484Z,94.74
2022-09-21T02:24:32.362Z,95.07
2022-09-21T02:27:05.388Z,94.83
2022-09-21T02:29:42.445Z,94.90
2022-09-21T02:32:15.539Z,94.93
2022-09-21T02:34:46.007Z,94.78
2022-09-21T02:37:20.811Z,94.68
2022-09-21T02:39:58.174Z,95.26
2022-09-21T02:42:29.815Z,94.60
2022-09-21T02:45:06.968Z,95.24
2022-09-21T02:47:38.768Z,95.65
2022-09-21T02:50:11.496Z,95.80
2022-09-21T02:52:42.194Z,95.67
2022-09-21T02:55:12.658Z,95.21
2022-09-21T02:57:41.853Z,95.34
2022-09-21T03:00:12.857Z,95.53
2022-09-21T03:02:43.408Z,95.28
2022-09-21T03:05:12.749Z,95.51
2022-09-21T03:07:41.046Z,95.31
2022-09-21T03:10:10.465Z,95.04
2022-09-21T03:12:39.073Z,95.30
2022-09-21T03:15:08.386Z,95.32
2022-09-21T03:17:36.705Z,95.25
2022-09-21T03:20:07.391Z,95.25
2022-09-21T03:22:35.797Z,96.07
2022-09-21T03:25:06.135Z,95.32
2022-09-21T03:27:35.241Z,96.02
2022-09-21T03:30:04.083Z,95.60
2022-09-21T03:32:32.226Z,95.69
2022-09-21T03:35:00.613Z,95.93
2022-09-21T03:37:30.475Z,95.97
2022-09-21T03:39:59.567Z,96.08
2022-09-21T03:42:28.039Z,96.08
2022-09-21T03:44:56.383Z,96.49
2022-09-21T03:47:24.921Z,96.20
2022-09-21T03:49:53.703Z,96.04
2022-09-21T03:52:22.535Z,96.48
2022-09-21T03:54:50.865Z,96.66
2022-09-21T03:57:18.929Z,96.36
2022-09-21T03:59:47.824Z,96.19
2022-09-21T04:02:16.651Z,96.32
2022-09-21T04:04:44.817Z,96.80
2022-09-21T04:07:14.629Z,96.03
2022-09-21T04:09:43.461Z,96.25
2022-09-21T04:12:12.725Z,96.41
2022-09-21T04:14:41.181Z,96.29
2022-09-21T04:17:11.553Z,96.38
2022-09-21T04:19:39.961Z,96.42
2022-09-21T04:22:08.821Z,96.04
2022-09-21T04:24:38.096Z,95.84
2022-09-21T04:27:07.567Z,95.73
2022-09-21T04:29:37.057Z,96.09
2022-09-21T04:32:06.435Z,96.12
2022-09-21T04:34:38.989Z,96.13
2022-09-21T04:37:10.180Z,96.26
2022-09-21T04:39:38.913Z,96.34
2022-09-21T04:42:07.743Z,96.20
2022-09-21T04:44:36.180Z,96.00
2022-09-21T04:47:05.118Z,96.39
2022-09-21T04:49:34.009Z,96.28
2022-09-21T04:52:02.798Z,96.59
2022-09-21T04:54:31.229Z,96.34
2022-09-21T04:56:59.587Z,96.03
2022-09-21T04:59:29.084Z,96.36
2022-09-21T05:01:57.607Z,96.08
2022-09-21T05:04:26.188Z,96.25
2022-09-21T05:06:54.613Z,96.31
2022-09-21T05:09:44.427Z,96.30
2022-09-21T05:12:12.997Z,96.18
2022-09-21T05:14:43.570Z,96.33
2022-09-21T05:17:12.118Z,96.48
2022-09-21T05:19:41.276Z,96.15
2022-09-21T05:22:09.904Z,95.86
2022-09-21T05:24:38.305Z,96.02
2022-09-21T05:27:08.029Z,95.94
2022-09-21T05:29:39.358Z,95.98
2022-09-21T05:32:13.618Z,96.02
2022-09-21T05:34:53.720Z,95.94
2022-09-21T05:37:45.672Z,95.88
2022-09-21T05:40:15.925Z,95.62
2022-09-21T05:42:45.337Z,95.46
2022-09-21T05:45:17.413Z,95.38
2022-09-21T05:47:55.805Z,95.45
2022-09-21T05:50:34.666Z,94.85
2022-09-21T05:53:11.757Z,95.10
2022-09-21T05:55:50.600Z,95.18
2022-09-21T05:58:25.098Z,94.99
2022-09-21T06:01:02.112Z,95.09
2022-09-21T06:03:35.683Z,95.06
2022-09-21T06:06:04.770Z,94.91
2022-09-21T06:08:34.064Z,94.94
2022-09-21T06:11:06.020Z,95.16
2022-09-21T06:13:40.577Z,94.73
2022-09-21T06:16:09.266Z,94.63
2022-09-21T06:18:42.631Z,94.53
2022-09-21T06:21:11.553Z,94.00
2022-09-21T06:23:39.818Z,94.04
2022-09-21T06:26:08.423Z,93.90
2022-09-21T06:28:37.037Z,93.79
2022-09-21T06:31:06.159Z,93.35
2022-09-21T06:33:37.463Z,92.68
2022-09-21T06:36:06.818Z,92.71
2022-09-21T06:38:35.555Z,91.94
2022-09-21T06:41:04.826Z,92.23
2022-09-21T06:43:33.447Z,91.90
2022-09-21T06:46:03.051Z,92.14
2022-09-21T06:48:33.843Z,92.05
2022-09-21T06:51:03.421Z,91.51
2022-09-21T06:53:35.377Z,91.71
2022-09-21T06:56:05.572Z,91.60
2022-09-21T06:58:34.938Z,91.62
2022-09-21T07:01:08.746Z,91.38
2022-09-21T07:03:38.142Z,90.51
2022-09-21T07:06:07.469Z,90.66
2022-09-21T07:11:24.639Z,90.75
2022-09-21T07:13:53.010Z,90.51
2022-09-21T07:16:21.463Z,90.50
2022-09-21T07:18:50.400Z,89.66
2022-09-21T07:21:18.714Z,89.58
2022-09-21T07:23:47.053Z,89.08
2022-09-21T07:26:16.005Z,88.61
2022-09-21T07:28:44.169Z,88.44
2022-09-21T07:31:14.849Z,88.30
2022-09-21T07:33:46.197Z,88.28
2022-09-21T07:36:17.174Z,88.54
2022-09-21T07:38:45.779Z,87.49
2022-09-21T07:41:14.773Z,86.54
2022-09-21T07:43:43.463Z,85.41
2022-09-21T07:46:13.986Z,86.30
2022-09-21T07:48:42.727Z,85.47
2022-09-21T07:51:12.417Z,86.01
2022-09-21T07:53:42.459Z,85.20
2022-09-21T07:56:13.737Z,84.90
2022-09-21T07:59:00.638Z,83.01
2022-09-21T08:01:30.875Z,82.80
2022-09-21T08:03:59.998Z,83.94
2022-09-21T08:06:31.512Z,83.75
2022-09-21T08:09:00.461Z,82.58
2022-09-21T08:11:29.956Z,80.99
2022-09-21T08:14:00.521Z,81.99
2022-09-21T08:16:30.517Z,81.90
2022-09-21T08:18:59.371Z,81.14
2022-09-21T08:21:27.951Z,80.40
2022-09-21T08:23:57.228Z,80.09
2022-09-21T08:26:26.988Z,79.34
2022-09-21T08:28:58.280Z,79.80
2022-09-21T08:31:27.029Z,79.58
2022-09-21T08:33:56.531Z,79.79
2022-09-21T08:36:25.338Z,79.82
2022-09-21T08:38:56.455Z,80.17
2022-09-21T08:41:33.960Z,80.61
2022-09-21T08:44:07.608Z,81.11
2022-09-21T08:46:36.496Z,80.52
2022-09-21T08:49:09.606Z,80.14
2022-09-21T08:51:44.030Z,80.56
2022-09-21T08:54:16.896Z,80.73
2022-09-21T08:57:04.341Z,80.41
2022-09-21T08:59:34.584Z,80.54
2022-09-21T09:02:13.800Z,80.11
2022-09-21T09:04:52.473Z,80.09
2022-09-21T09:07:31.267Z,80.09
2022-09-21T09:10:10.724Z,78.57
2022-09-21T09:12:49.872Z,78.80
2022-09-21T09:15:37.695Z,78.44
2022-09-21T09:18:12.208Z,78.62
2022-09-21T09:20:43.540Z,78.64
2022-09-21T09:23:15.713Z,78.66
2022-09-21T09:25:49.487Z,78.31
2022-09-21T09:28:24.587Z,76.96
2022-09-21T09:30:58.769Z,77.91
2022-09-21T09:33:30.738Z,78.94
2022-09-21T09:36:03.545Z,78.51
2022-09-21T09:38:36.618Z,78.49
2022-09-21T09:41:28.156Z,78.42
2022-09-21T09:44:06.966Z,77.76
2022-09-21T09:46:44.846Z,77.29
2022-09-21T09:49:23.202Z,76.65
2022-09-21T09:51:51.930Z,76.34
2022-09-21T09:54:22.484Z,76.78
2022-09-21T09:56:50.722Z,76.05
2022-09-21T09:59:30.007Z,75.62
2022-09-21T10:02:05.245Z,74.77
2022-09-21T10:04:34.469Z,73.85
2022-09-21T10:07:02.778Z,73.83
2022-09-21T10:09:32.952Z,73.60
2022-09-21T10:12:08.066Z,73.90
2022-09-21T10:14:40.891Z,73.92
2022-09-21T10:17:17.402Z,74.92
2022-09-21T10:19:45.912Z,75.25
2022-09-21T10:22:18.258Z,74.94
2022-09-21T10:24:49.282Z,75.14
2022-09-21T10:27:21.511Z,75.08
2022-09-21T10:29:50.400Z,75.23
2022-09-21T10:32:25.557Z,75.60
2022-09-21T10:35:17.619Z,76.67
2022-09-21T10:37:47.863Z,77.67
2022-09-21T10:40:25.681Z,78.25
2022-09-21T10:42:58.467Z,78.30
2022-09-21T10:45:28.328Z,78.37
2022-09-21T10:47:58.103Z,79.02
2022-09-21T10:50:29.373Z,79.42
2022-09-21T10:53:01.655Z,80.13
2022-09-21T10:55:32.595Z,80.82
2022-09-21T10:58:01.280Z,80.73
2022-09-21T11:00:41.744Z,80.42
2022-09-21T11:03:28.794Z,80.05
2022-09-21T11:06:05.908Z,79.67
2022-09-21T11:08:37.358Z,79.74
2022-09-21T11:11:21.105Z,79.99
2022-09-21T11:13:55.880Z,80.63
2022-09-21T11:16:29.411Z,80.46
2022-09-21T11:19:06.342Z,79.46
2022-09-21T11:21:42.377Z,80.32
2022-09-21T11:24:23.177Z,80.35
2022-09-21T11:26:55.929Z,80.37
2022-09-21T11:29:28.035Z,79.52
2022-09-21T11:32:10.788Z,76.18
2022-09-21T11:34:58.323Z,74.13
2022-09-21T11:37:41.689Z,74.21
2022-09-21T11:40:27.466Z,75.33
2022-09-21T11:43:06.487Z,76.29
2022-09-21T11:45:58.297Z,75.40
2022-09-21T11:48:40.493Z,74.69
2022-09-21T11:51:20.478Z,72.22
2022-09-21T11:54:03.851Z,70.53
2022-09-21T11:56:39.245Z,70.02
2022-09-21T11:59:22.803Z,69.17
2022-09-21T12:02:05.071Z,66.30
2022-09-21T12:04:43.405Z,69.31
2022-09-21T12:07:25.474Z,69.44
2022-09-21T12:10:03.662Z,65.52
2022-09-21T12:12:41.031Z,63.01
2022-09-21T12:15:13.611Z,61.24
2022-09-21T12:17:49.763Z,63.65
2022-09-21T12:20:23.981Z,63.68
2022-09-21T12:22:57.721Z,64.21
2022-09-21T12:25:29.135Z,64.46
2022-09-21T12:28:03.726Z,62.64
2022-09-21T12:30:33.264Z,56.42
2022-09-21T12:33:06.543Z,56.84
2022-09-21T12:35:38.879Z,56.69
2022-09-21T12:38:15.907Z,57.84
2022-09-21T12:40:49.300Z,58.65
2022-09-21T12:43:26.810Z,57.57
2022-09-21T12:45:58.244Z,57.61
2022-09-21T12:48:31.949Z,57.17
2022-09-21T12:51:06.498Z,57.93
2022-09-21T12:53:38.301Z,58.15
2022-09-21T12:56:12.141Z,57.37
2022-09-21T12:58:57.122Z,57.58
2022-09-21T13:01:32.728Z,55.14
2022-09-21T13:04:28.741Z,55.04
2022-09-21T13:07:30.695Z,57.03
2022-09-21T13:10:00.493Z,57.96
2022-09-21T13:12:37.363Z,55.82
2022-09-21T13:15:26.427Z,55.37
2022-09-21T13:18:01.853Z,55.75
2022-09-21T13:20:36.433Z,55.44
2022-09-21T13:23:05.548Z,55.52
2022-09-21T13:25:37.609Z,56.88
2022-09-21T13:28:19.289Z,57.27
2022-09-21T13:30:52.062Z,59.00
2022-09-21T13:34:01.041Z,60.11
2022-09-21T13:36:34.788Z,61.11
2022-09-21T13:39:18.007Z,60.69
2022-09-21T13:42:03.516Z,61.16
2022-09-21T13:44:44.926Z,60.91
2022-09-21T13:47:29.095Z,61.60
2022-09-21T13:50:00.899Z,61.81
2022-09-21T13:52:39.817Z,62.08
2022-09-21T13:55:25.259Z,62.19
2022-09-21T13:57:55.968Z,62.04
2022-09-21T14:00:40.756Z,62.42
2022-09-21T14:03:21.980Z,62.11
2022-09-21T14:05:52.598Z,62.32
2022-09-21T14:08:25.167Z,62.57
2022-09-21T14:10:57.385Z,62.78
2022-09-21T14:13:32.472Z,63.28
2022-09-21T14:16:37.179Z,63.62
2022-09-21T14:19:44.547Z,62.56
2022-09-21T14:22:37.732Z,62.99
2022-09-21T14:25:48.827Z,62.62
2022-09-21T14:28:19.085Z,62.59
2022-09-21T14:30:55.558Z,62.39
2022-09-21T14:33:29.141Z,62.27
2022-09-21T14:35:58.677Z,62.78
2022-09-21T14:38:29.495Z,63.15
2022-09-21T14:41:00.953Z,63.26
2022-09-21T14:43:33.637Z,63.99
2022-09-21T14:46:14.604Z,64.76
2022-09-21T14:48:50.169Z,64.99
2022-09-21T14:51:23.356Z,65.22
2022-09-21T14:54:08.091Z,65.74
2022-09-21T14:56:51.164Z,66.04
2022-09-21T14:59:33.230Z,66.09
2022-09-21T15:02:07.066Z,66.54
2022-09-21T15:04:54.419Z,66.97
2022-09-21T15:07:49.584Z,67.39
2022-09-21T15:10:40.842Z,67.70
2022-09-21T15:13:23.248Z,67.62
2022-09-21T15:16:08.489Z,67.44
2022-09-21T15:18:42.136Z,67.68
2022-09-21T15:21:21.731Z,67.05
2022-09-21T15:23:51.315Z,66.80
2022-09-21T15:26:25.936Z,66.82
2022-09-21T15:29:09.813Z,66.85
2022-09-21T15:31:41.106Z,67.06
2022-09-21T15:34:10.928Z,66.88
2022-09-21T15:36:41.197Z,66.81
2022-09-21T15:39:22.676Z,67.02
2022-09-21T15:41:59.312Z,67.35
2022-09-21T15:44:33.237Z,67.41
2022-09-21T15:47:02.557Z,67.35
2022-09-21T15:49:31.095Z,67.72
2022-09-21T15:52:01.912Z,67.96
2022-09-21T15:54:33.082Z,68.18
2022-09-21T15:57:08.025Z,68.23
2022-09-21T15:59:37.323Z,68.53
2022-09-21T16:02:17.798Z,68.73
2022-09-21T16:04:49.548Z,69.03
2022-09-21T16:07:27.133Z,70.08
2022-09-21T16:09:55.960Z,71.21
2022-09-21T16:12:34.307Z,71.59
2022-09-21T16:15:07.829Z,72.44
2022-09-21T16:17:39.610Z,72.96
2022-09-21T16:20:22.954Z,73.05
2022-09-21T16:22:59.152Z,73.42
2022-09-21T16:25:34.046Z,74.27
2022-09-21T16:28:04.819Z,74.61
2022-09-21T16:30:42.400Z,74.94
2022-09-21T16:33:43.565Z,75.07
2022-09-21T16:36:41.867Z,75.50
2022-09-21T16:39:15.394Z,74.95
2022-09-21T16:41:48.149Z,74.75
2022-09-21T16:44:23.224Z,75.08
2022-09-21T16:46:57.081Z,74.96
2022-09-21T16:49:30.433Z,75.12
2022-09-21T16:51:59.592Z,74.94
2022-09-21T16:54:28.519Z,75.05
2022-09-21T16:56:58.863Z,74.67
2022-09-21T16:59:27.403Z,74.70
2022-09-21T17:01:57.117Z,74.39
2022-09-21T17:04:32.631Z,74.11
2022-09-21T17:07:02.912Z,73.92
2022-09-21T17:09:35.078Z,74.04
2022-09-21T17:12:06.532Z,74.02
2022-09-21T17:14:36.119Z,74.22
2022-09-21T17:17:08.005Z,74.27
2022-09-21T17:19:36.641Z,74.42
2022-09-21T17:22:06.500Z,74.54
2022-09-21T17:24:50.451Z,74.68
2022-09-21T17:27:20.665Z,75.06
2022-09-21T17:29:50.308Z,75.36
2022-09-21T17:32:20.395Z,75.06
2022-09-21T17:34:55.080Z,75.68
2022-09-21T17:37:24.995Z,75.98
2022-09-21T17:39:53.662Z,76.07
2022-09-21T17:42:25.292Z,76.09
2022-09-21T17:45:06.999Z,76.08
2022-09-21T17:47:39.185Z,76.23
2022-09-21T17:50:23.403Z,76.25
2022-09-21T17:53:09.698Z,76.51
2022-09-21T17:55:39.772Z,76.81
2022-09-21T17:58:34.000Z,77.15
2022-09-21T18:01:07.582Z,77.24
2022-09-21T18:03:41.092Z,77.65
2022-09-21T18:06:12.042Z,78.47
2022-09-21T18:08:41.976Z,79.04
2022-09-21T18:11:26.694Z,78.66
2022-09-21T18:14:03.202Z,79.46
2022-09-21T18:16:39.695Z,79.71
2022-09-21T18:19:22.622Z,79.13
2022-09-21T18:21:52.693Z,79.97
2022-09-21T18:24:30.804Z,80.31
2022-09-21T18:27:01.869Z,80.05
2022-09-21T18:29:39.846Z,80.32
2022-09-21T18:32:31.690Z,80.17
2022-09-21T18:35:39.485Z,80.61
2022-09-21T18:38:17.321Z,80.93
2022-09-21T18:40:54.832Z,80.92
2022-09-21T18:43:28.485Z,80.36
2022-09-21T18:46:01.349Z,80.40
2022-09-21T18:48:39.069Z,80.78
2022-09-21T18:51:14.577Z,80.86
2022-09-21T18:53:45.830Z,81.06
2022-09-21T18:56:15.331Z,81.32
2022-09-21T18:58:44.964Z,81.65
2022-09-21T19:01:16.485Z,81.33
2022-09-21T19:03:46.191Z,82.45
2022-09-21T19:06:26.916Z,82.40
2022-09-21T19:09:03.220Z,82.17
2022-09-21T19:11:37.633Z,82.68
2022-09-21T19:14:13.466Z,82.67
2022-09-21T19:16:49.211Z,83.04
2022-09-21T19:19:29.306Z,82.89
2022-09-21T19:22:02.184Z,83.07
2022-09-21T19:24:36.722Z,83.34
2022-09-21T19:27:15.139Z,83.17
2022-09-21T19:29:55.496Z,83.21
2022-09-21T19:32:31.375Z,83.31
2022-09-21T19:35:00.514Z,83.22
2022-09-21T19:37:30.748Z,83.71
2022-09-21T19:39:59.962Z,83.59
2022-09-21T19:42:35.481Z,83.89
2022-09-21T19:45:13.213Z,83.88
2022-09-21T19:47:45.502Z,84.55
2022-09-21T19:50:18.488Z,84.42
2022-09-21T19:52:47.990Z,83.67
2022-09-21T19:55:37.521Z,83.97
2022-09-21T19:58:26.806Z,84.18
2022-09-21T20:00:56.814Z,84.27
2022-09-21T20:03:31.463Z,85.19
2022-09-21T20:06:05.236Z,85.12
2022-09-21T20:08:38.795Z,85.15
2022-09-21T20:11:12.081Z,85.03
2022-09-21T20:13:57.207Z,85.24
2022-09-21T20:16:36.207Z,85.49
2022-09-21T20:19:13.064Z,85.33
2022-09-21T20:21:45.397Z,85.16
2022-09-21T20:24:22.075Z,85.40
2022-09-21T20:26:51.307Z,85.29
2022-09-21T20:29:21.606Z,85.00
2022-09-21T20:31:52.436Z,85.21
2022-09-21T20:34:22.398Z,85.03
2022-09-21T20:36:50.676Z,85.41
2022-09-21T20:39:19.029Z,85.21
2022-09-21T20:41:47.494Z,84.93
2022-09-21T20:44:15.770Z,85.14
2022-09-21T20:46:45.465Z,85.31
2022-09-21T20:49:15.636Z,85.64
2022-09-21T20:51:45.412Z,85.93
2022-09-21T20:54:13.713Z,85.73
2022-09-21T20:56:42.934Z,85.32
2022-09-21T20:59:12.007Z,85.71
2022-09-21T21:01:40.703Z,85.83
2022-09-21T21:04:12.671Z,86.27
2022-09-21T21:06:41.822Z,85.92
2022-09-21T21:09:10.554Z,86.02
2022-09-21T21:11:40.463Z,85.89
2022-09-21T21:14:11.010Z,85.96
2022-09-21T21:16:40.232Z,86.56
2022-09-21T21:19:08.694Z,86.17
2022-09-21T21:21:37.747Z,86.09
2022-09-21T21:24:25.572Z,85.69
2022-09-21T21:27:02.278Z,85.92
2022-09-21T21:29:32.011Z,86.03
2022-09-21T21:32:01.115Z,86.00
2022-09-21T21:34:29.987Z,86.00
2022-09-21T21:36:58.914Z,86.12
2022-09-21T21:39:27.516Z,86.14
2022-09-21T21:41:55.910Z,86.55
2022-09-21T21:44:24.746Z,86.18
2022-09-21T21:46:54.164Z,86.71
2022-09-21T21:49:22.735Z,86.32
2022-09-21T21:51:51.890Z,86.80
2022-09-21T21:54:22.572Z,87.05
2022-09-21T21:56:51.241Z,86.86
2022-09-21T21:59:19.516Z,86.88
2022-09-21T22:01:48.147Z,86.82
2022-09-21T22:04:16.753Z,86.45
2022-09-21T22:06:45.303Z,86.42
2022-09-21T22:09:14.170Z,87.10
2022-09-21T22:11:42.620Z,86.93
2022-09-21T22:14:12.150Z,87.00
2022-09-21T22:16:40.908Z,87.41
2022-09-21T22:19:09.276Z,87.06
2022-09-21T22:21:42.916Z,87.33
2022-09-21T22:24:11.766Z,87.28
2022-09-21T22:26:41.791Z,87.26
2022-09-21T22:29:13.041Z,87.25
2022-09-21T22:31:43.955Z,87.46
2022-09-21T22:34:13.068Z,87.31
2022-09-21T22:36:43.073Z,87.59
2022-09-21T22:39:12.335Z,87.84
2022-09-21T22:41:41.972Z,87.70
2022-09-21T22:44:11.997Z,87.53
2022-09-21T22:46:40.736Z,87.93
2022-09-21T22:49:11.648Z,88.10
2022-09-21T22:51:40.128Z,88.12
2022-09-21T22:54:08.462Z,87.95
2022-09-21T22:56:39.894Z,87.98
2022-09-21T22:59:08.419Z,88.66
2022-09-21T23:01:39.083Z,88.52
2022-09-21T23:04:10.316Z,88.65
2022-09-21T23:06:40.504Z,88.29
2022-09-21T23:09:13.811Z,88.72
2022-09-21T23:11:46.544Z,88.99
2022-09-21T23:14:15.942Z,88.42
2022-09-21T23:16:44.737Z,89.14
2022-09-21T23:19:15.868Z,89.44
2022-09-21T23:21:46.382Z,89.21
2022-09-21T23:24:15.032Z,89.05
2022-09-21T23:26:43.811Z,89.25
2022-09-21T23:29:14.333Z,89.24
2022-09-21T23:31:45.477Z,89.36
2022-09-21T23:34:16.606Z,89.25
2022-09-21T23:36:48.148Z,88.98
2022-09-21T23:39:16.523Z,89.42
2022-09-21T23:41:45.257Z,89.22
2022-09-21T23:44:13.743Z,89.24
2022-09-21T23:46:43.140Z,90.08
2022-09-21T23:49:11.988Z,89.92
2022-09-21T23:51:41.108Z,90.05
2022-09-21T23:54:10.282Z,90.09
2022-09-21T23:56:38.975Z,90.30
2022-09-21T23:59:07.748Z,90.19
